Indiahoma, Oklahoma
Current Conditions -  °F | °C
As of 3:53 PM on Sunday 21 Dec 2014 (Local Time) from KLAW Reporting Station
Overcast Overcast  
Wind Chill: 51°   Ceiling: 2600
Heat Index: 51°   Visibility: 10mi
Dew Point: 44°   Wind: 15mph
Humidity: 77%   Direction: 150°SSE
Pressure: 29.75"   Gusts: NA
Location:  34.62°N, 98.75°W
Report Text: KLAW 212153Z 15013KT 10SM OVC026 11/07 A2975 RMK AO2 SLP076 T01060067
Loading
Personal Weather Stations






























Interactive Weather Map New forecast layout! Learn more

10-Day Weather Forecast

Advertisements
Track Severe Weather on mobile